Portada
METAR-TAF:

METAR-TAF

Aeroports :

Phrae, Tailàndia

latitud: 18-10N, longitud: 100-10E, altitud: 161 m

Observació

L'informe es va fer fa 35 minuts, a les 10:00 UTC
Vent 2 kt amb direcció variable
Temperatura 38°C
Humitat 38%
Pressió 1005 hPa
Visibilitat: 9000 m
Escasses núvols a una alçada de 2500 ft

METAR: VTCP 251000Z VRB02KT 9000 FEW025 38/21 Q1005 NOSIG

Hora: 17:35 (10:35 UTC)

Pronòstic

L'informe es va fer fa 5 hores i 35 minuts, a les 05:00 UTC
Pronòstic vàlid del 25 a les 06 UTC al 26 a les 06 UTC
Vent 5 kt del Sud-Oest
Visibilitat 10 km o més
Escasses núvols a una alçada de 2500 ft

TAF: VTCP 250500Z 2506/2606 22005KT 9999 FEW025

Observacions i pronòstics meteorològics de més de 4000 aeroports (METAR i TAF).

Les estacions disponibles són els punts grocs i vermells al mapa.

Posi el ratolí al punt desitjat per veure el nom de l'estació.

Feu clic per veure les observacions i els pronòstics meteorològics.

Per canviar el mapa: feu clic els botons verds amb una creu de color negre per apropar; al botó verd amb un guió per allunyar la imatge; o en les fletxes verdes per a mapes adjacents.


METAR-TAF: